sensor_id;sensor_type;location;lat;lon;timestamp;pressure;altitude;pressure_sealevel;temperature
12234;BMP180;6179;51.748;8.728;2023-03-14T00:02:26;230388.00;;;222.90
12234;BMP180;6179;51.748;8.728;2023-03-14T00:08:27;230388.00;;;222.90
12234;BMP180;6179;51.748;8.728;2023-03-14T00:14:29;230388.00;;;222.90
12234;BMP180;6179;51.748;8.728;2023-03-14T00:20:30;230388.00;;;222.90
12234;BMP180;6179;51.748;8.728;2023-03-14T00:26:30;230388.00;;;222.90
12234;BMP180;6179;51.748;8.728;2023-03-14T00:32:31;230388.00;;;222.90
12234;BMP180;6179;51.748;8.728;2023-03-14T00:38:33;230388.00;;;222.90
12234;BMP180;6179;51.748;8.728;2023-03-14T00:44:33;230388.00;;;222.90
12234;BMP180;6179;51.748;8.728;2023-03-14T00:50:34;230388.00;;;222.90
12234;BMP180;6179;51.748;8.728;2023-03-14T00:56:35;230388.00;;;222.90
12234;BMP180;6179;51.748;8.728;2023-03-14T01:02:36;230388.00;;;222.90
12234;BMP180;6179;51.748;8.728;2023-03-14T01:08:37;230388.00;;;222.90
12234;BMP180;6179;51.748;8.728;2023-03-14T01:14:37;230388.00;;;222.90
12234;BMP180;6179;51.748;8.728;2023-03-14T01:20:38;230388.00;;;222.90
12234;BMP180;6179;51.748;8.728;2023-03-14T01:26:39;230388.00;;;222.90
12234;BMP180;6179;51.748;8.728;2023-03-14T01:32:40;230388.00;;;222.90
12234;BMP180;6179;51.748;8.728;2023-03-14T01:38:41;230388.00;;;222.90
12234;BMP180;6179;51.748;8.728;2023-03-14T01:45:00;230388.00;;;222.90
12234;BMP180;6179;51.748;8.728;2023-03-14T01:51:05;230388.00;;;222.90
12234;BMP180;6179;51.748;8.728;2023-03-14T01:57:11;230388.00;;;222.90
12234;BMP180;6179;51.748;8.728;2023-03-14T02:03:17;230388.00;;;222.90
12234;BMP180;6179;51.748;8.728;2023-03-14T02:09:22;230388.00;;;222.90
12234;BMP180;6179;51.748;8.728;2023-03-14T02:15:23;230388.00;;;222.90
12234;BMP180;6179;51.748;8.728;2023-03-14T02:22:11;230388.00;;;222.90
12234;BMP180;6179;51.748;8.728;2023-03-14T02:28:13;230388.00;;;222.90
12234;BMP180;6179;51.748;8.728;2023-03-14T02:34:14;230388.00;;;222.90
12234;BMP180;6179;51.748;8.728;2023-03-14T02:40:15;108421.00;;;222.90
12234;BMP180;6179;51.748;8.728;2023-03-14T02:46:20;230388.00;;;222.90
12234;BMP180;6179;51.748;8.728;2023-03-14T02:52:21;108421.00;;;222.90
12234;BMP180;6179;51.748;8.728;2023-03-14T02:58:22;108422.00;;;222.90
12234;BMP180;6179;51.748;8.728;2023-03-14T03:04:22;108421.00;;;222.90
12234;BMP180;6179;51.748;8.728;2023-03-14T03:10:23;108416.00;;;222.90
12234;BMP180;6179;51.748;8.728;2023-03-14T03:16:24;108415.00;;;222.90
12234;BMP180;6179;51.748;8.728;2023-03-14T03:22:25;108418.00;;;222.90
12234;BMP180;6179;51.748;8.728;2023-03-14T03:28:26;108422.00;;;222.90
12234;BMP180;6179;51.748;8.728;2023-03-14T03:34:27;108421.00;;;222.90
12234;BMP180;6179;51.748;8.728;2023-03-14T03:40:28;108417.00;;;222.90
12234;BMP180;6179;51.748;8.728;2023-03-14T03:46:29;108415.00;;;222.90
12234;BMP180;6179;51.748;8.728;2023-03-14T03:52:30;108421.00;;;222.90
12234;BMP180;6179;51.748;8.728;2023-03-14T03:58:31;108422.00;;;222.90
12234;BMP180;6179;51.748;8.728;2023-03-14T04:04:31;108419.00;;;222.90
12234;BMP180;6179;51.748;8.728;2023-03-14T04:10:36;108417.00;;;222.90
12234;BMP180;6179;51.748;8.728;2023-03-14T04:16:37;108424.00;;;222.90
12234;BMP180;6179;51.748;8.728;2023-03-14T04:22:39;108422.00;;;222.90
12234;BMP180;6179;51.748;8.728;2023-03-14T04:28:39;108422.00;;;222.90
12234;BMP180;6179;51.748;8.728;2023-03-14T04:34:41;108421.00;;;222.90
12234;BMP180;6179;51.748;8.728;2023-03-14T04:40:43;230388.00;;;222.90
12234;BMP180;6179;51.748;8.728;2023-03-14T04:46:44;230388.00;;;222.90
12234;BMP180;6179;51.748;8.728;2023-03-14T04:52:45;230388.00;;;222.90
12234;BMP180;6179;51.748;8.728;2023-03-14T04:58:46;108419.00;;;222.90
12234;BMP180;6179;51.748;8.728;2023-03-14T05:04:47;230388.00;;;222.90
12234;BMP180;6179;51.748;8.728;2023-03-14T05:10:55;108422.00;;;222.90
12234;BMP180;6179;51.748;8.728;2023-03-14T05:16:56;230388.00;;;222.90
12234;BMP180;6179;51.748;8.728;2023-03-14T05:22:57;108414.00;;;222.90
12234;BMP180;6179;51.748;8.728;2023-03-14T05:28:57;108423.00;;;222.90
12234;BMP180;6179;51.748;8.728;2023-03-14T05:34:58;108423.00;;;222.90
12234;BMP180;6179;51.748;8.728;2023-03-14T05:40:59;230388.00;;;222.90
12234;BMP180;6179;51.748;8.728;2023-03-14T05:47:00;230388.00;;;222.90
12234;BMP180;6179;51.748;8.728;2023-03-14T05:53:01;230388.00;;;222.90
12234;BMP180;6179;51.748;8.728;2023-03-14T05:59:02;230388.00;;;222.90
12234;BMP180;6179;51.748;8.728;2023-03-14T06:05:05;230388.00;;;222.90
12234;BMP180;6179;51.748;8.728;2023-03-14T06:11:06;230388.00;;;222.90
12234;BMP180;6179;51.748;8.728;2023-03-14T06:17:07;230388.00;;;222.90
12234;BMP180;6179;51.748;8.728;2023-03-14T06:23:08;230388.00;;;222.90
12234;BMP180;6179;51.748;8.728;2023-03-14T06:29:10;230388.00;;;222.90
12234;BMP180;6179;51.748;8.728;2023-03-14T06:35:10;230388.00;;;222.90
12234;BMP180;6179;51.748;8.728;2023-03-14T06:41:11;230388.00;;;222.90
12234;BMP180;6179;51.748;8.728;2023-03-14T06:47:12;230388.00;;;222.90
12234;BMP180;6179;51.748;8.728;2023-03-14T06:53:13;230388.00;;;222.90
12234;BMP180;6179;51.748;8.728;2023-03-14T06:59:14;230388.00;;;222.90
12234;BMP180;6179;51.748;8.728;2023-03-14T07:05:15;230388.00;;;222.90
12234;BMP180;6179;51.748;8.728;2023-03-14T07:11:16;230388.00;;;222.90
12234;BMP180;6179;51.748;8.728;2023-03-14T07:17:16;230388.00;;;222.90
12234;BMP180;6179;51.748;8.728;2023-03-14T07:23:17;230388.00;;;222.90
12234;BMP180;6179;51.748;8.728;2023-03-14T07:29:18;230388.00;;;222.90
12234;BMP180;6179;51.748;8.728;2023-03-14T07:35:19;230388.00;;;222.90
12234;BMP180;6179;51.748;8.728;2023-03-14T07:41:19;230388.00;;;222.90
12234;BMP180;6179;51.748;8.728;2023-03-14T07:47:21;230388.00;;;222.90
12234;BMP180;6179;51.748;8.728;2023-03-14T07:53:23;230388.00;;;222.90
12234;BMP180;6179;51.748;8.728;2023-03-14T07:59:24;230388.00;;;222.90
12234;BMP180;6179;51.748;8.728;2023-03-14T08:05:25;230388.00;;;222.90
12234;BMP180;6179;51.748;8.728;2023-03-14T08:11:26;230388.00;;;222.90
12234;BMP180;6179;51.748;8.728;2023-03-14T08:17:27;230388.00;;;222.90
12234;BMP180;6179;51.748;8.728;2023-03-14T08:23:27;230388.00;;;222.90
12234;BMP180;6179;51.748;8.728;2023-03-14T08:29:28;230388.00;;;222.90
12234;BMP180;6179;51.748;8.728;2023-03-14T08:35:29;230388.00;;;222.90
12234;BMP180;6179;51.748;8.728;2023-03-14T08:41:30;230388.00;;;222.90
12234;BMP180;6179;51.748;8.728;2023-03-14T08:47:31;230388.00;;;222.90
12234;BMP180;6179;51.748;8.728;2023-03-14T08:53:32;108418.00;;;222.90
12234;BMP180;6179;51.748;8.728;2023-03-14T08:59:32;108418.00;;;222.90
12234;BMP180;6179;51.748;8.728;2023-03-14T09:05:34;230388.00;;;222.90
12234;BMP180;6179;51.748;8.728;2023-03-14T09:11:35;230388.00;;;222.90
12234;BMP180;6179;51.748;8.728;2023-03-14T09:17:35;230388.00;;;222.90
12234;BMP180;6179;51.748;8.728;2023-03-14T09:23:36;230388.00;;;222.90
12234;BMP180;6179;51.748;8.728;2023-03-14T09:29:37;230388.00;;;222.90
12234;BMP180;6179;51.748;8.728;2023-03-14T09:35:38;230388.00;;;222.90
12234;BMP180;6179;51.748;8.728;2023-03-14T09:41:43;230388.00;;;222.90
12234;BMP180;6179;51.748;8.728;2023-03-14T09:47:46;230388.00;;;222.90
12234;BMP180;6179;51.748;8.728;2023-03-14T09:53:49;230388.00;;;222.90
12234;BMP180;6179;51.748;8.728;2023-03-14T09:59:55;230388.00;;;222.90
12234;BMP180;6179;51.748;8.728;2023-03-14T10:05:58;230388.00;;;222.90
12234;BMP180;6179;51.748;8.728;2023-03-14T10:11:59;230388.00;;;222.90
12234;BMP180;6179;51.748;8.728;2023-03-14T10:18:03;108422.00;;;222.90
12234;BMP180;6179;51.748;8.728;2023-03-14T10:24:27;108420.00;;;222.90
12234;BMP180;6179;51.748;8.728;2023-03-14T10:30:45;230388.00;;;222.90
12234;BMP180;6179;51.748;8.728;2023-03-14T10:36:46;108421.00;;;222.90
12234;BMP180;6179;51.748;8.728;2023-03-14T10:42:52;108422.00;;;222.90
12234;BMP180;6179;51.748;8.728;2023-03-14T10:48:53;108422.00;;;222.90
12234;BMP180;6179;51.748;8.728;2023-03-14T10:55:02;108418.00;;;222.90
12234;BMP180;6179;51.748;8.728;2023-03-14T11:07:44;108419.00;;;222.90
12234;BMP180;6179;51.748;8.728;2023-03-14T11:14:06;108417.00;;;222.90
12234;BMP180;6179;51.748;8.728;2023-03-14T11:39:40;108422.00;;;222.90
12234;BMP180;6179;51.748;8.728;2023-03-14T11:45:43;108422.00;;;222.90
12234;BMP180;6179;51.748;8.728;2023-03-14T11:51:51;108422.00;;;222.90
12234;BMP180;6179;51.748;8.728;2023-03-14T11:58:03;108413.00;;;222.90
12234;BMP180;6179;51.748;8.728;2023-03-14T12:11:01;108416.00;;;222.90
12234;BMP180;6179;51.748;8.728;2023-03-14T12:17:25;108419.00;;;222.90
12234;BMP180;6179;51.748;8.728;2023-03-14T12:23:39;108417.00;;;222.90
12234;BMP180;6179;51.748;8.728;2023-03-14T12:30:01;108418.00;;;222.90
12234;BMP180;6179;51.748;8.728;2023-03-14T12:36:04;108416.00;;;222.90
12234;BMP180;6179;51.748;8.728;2023-03-14T12:42:43;108412.00;;;222.90
12234;BMP180;6179;51.748;8.728;2023-03-14T12:48:41;108417.00;;;222.90
12234;BMP180;6179;51.748;8.728;2023-03-14T13:00:56;108415.00;;;222.90
12234;BMP180;6179;51.748;8.728;2023-03-14T13:07:02;108419.00;;;222.90
12234;BMP180;6179;51.748;8.728;2023-03-14T13:13:21;108419.00;;;222.90
12234;BMP180;6179;51.748;8.728;2023-03-14T13:19:29;108419.00;;;222.90
12234;BMP180;6179;51.748;8.728;2023-03-14T13:25:34;108423.00;;;222.90
12234;BMP180;6179;51.748;8.728;2023-03-14T13:31:35;108420.00;;;222.90
12234;BMP180;6179;51.748;8.728;2023-03-14T13:37:39;108417.00;;;222.90
12234;BMP180;6179;51.748;8.728;2023-03-14T13:43:43;108415.00;;;222.90
12234;BMP180;6179;51.748;8.728;2023-03-14T13:49:45;108421.00;;;222.90
12234;BMP180;6179;51.748;8.728;2023-03-14T13:55:47;108419.00;;;222.90
12234;BMP180;6179;51.748;8.728;2023-03-14T14:01:48;108413.00;;;222.90
12234;BMP180;6179;51.748;8.728;2023-03-14T14:07:50;108420.00;;;222.90
12234;BMP180;6179;51.748;8.728;2023-03-14T14:13:52;108421.00;;;222.90
12234;BMP180;6179;51.748;8.728;2023-03-14T14:19:54;108422.00;;;222.90
12234;BMP180;6179;51.748;8.728;2023-03-14T14:25:58;108419.00;;;222.90
12234;BMP180;6179;51.748;8.728;2023-03-14T14:32:17;108417.00;;;222.90
12234;BMP180;6179;51.748;8.728;2023-03-14T14:38:19;108419.00;;;222.90
12234;BMP180;6179;51.748;8.728;2023-03-14T14:44:34;108421.00;;;222.90
12234;BMP180;6179;51.748;8.728;2023-03-14T14:50:50;108420.00;;;222.90
12234;BMP180;6179;51.748;8.728;2023-03-14T14:57:04;108418.00;;;222.90
12234;BMP180;6179;51.748;8.728;2023-03-14T15:03:05;108418.00;;;222.90
12234;BMP180;6179;51.748;8.728;2023-03-14T15:09:09;108423.00;;;222.90
12234;BMP180;6179;51.748;8.728;2023-03-14T15:15:11;108417.00;;;222.90
12234;BMP180;6179;51.748;8.728;2023-03-14T15:21:12;108425.00;;;222.90
12234;BMP180;6179;51.748;8.728;2023-03-14T15:27:16;108423.00;;;222.90
12234;BMP180;6179;51.748;8.728;2023-03-14T15:33:17;108417.00;;;222.90
12234;BMP180;6179;51.748;8.728;2023-03-14T15:39:18;108414.00;;;222.90
12234;BMP180;6179;51.748;8.728;2023-03-14T15:45:19;108421.00;;;222.90
12234;BMP180;6179;51.748;8.728;2023-03-14T15:51:20;108419.00;;;222.90
12234;BMP180;6179;51.748;8.728;2023-03-14T15:57:21;108417.00;;;222.90
12234;BMP180;6179;51.748;8.728;2023-03-14T16:03:21;108413.00;;;222.90
12234;BMP180;6179;51.748;8.728;2023-03-14T16:09:22;108416.00;;;222.90
12234;BMP180;6179;51.748;8.728;2023-03-14T16:15:25;108418.00;;;222.90
12234;BMP180;6179;51.748;8.728;2023-03-14T16:21:28;108419.00;;;222.90
12234;BMP180;6179;51.748;8.728;2023-03-14T16:27:29;108412.00;;;222.90
12234;BMP180;6179;51.748;8.728;2023-03-14T16:33:32;108417.00;;;222.90
12234;BMP180;6179;51.748;8.728;2023-03-14T16:39:33;108413.00;;;222.90
12234;BMP180;6179;51.748;8.728;2023-03-14T16:45:36;108412.00;;;222.90
12234;BMP180;6179;51.748;8.728;2023-03-14T16:51:37;108418.00;;;222.90
12234;BMP180;6179;51.748;8.728;2023-03-14T16:57:38;108415.00;;;222.90
12234;BMP180;6179;51.748;8.728;2023-03-14T17:03:45;108416.00;;;222.90
12234;BMP180;6179;51.748;8.728;2023-03-14T17:09:47;108415.00;;;222.90
12234;BMP180;6179;51.748;8.728;2023-03-14T17:15:55;108412.00;;;222.90
12234;BMP180;6179;51.748;8.728;2023-03-14T17:21:56;108418.00;;;222.90
12234;BMP180;6179;51.748;8.728;2023-03-14T17:27:57;108420.00;;;222.90
12234;BMP180;6179;51.748;8.728;2023-03-14T17:33:58;108424.00;;;222.90
12234;BMP180;6179;51.748;8.728;2023-03-14T17:39:58;108421.00;;;222.90
12234;BMP180;6179;51.748;8.728;2023-03-14T17:46:05;108419.00;;;222.90
12234;BMP180;6179;51.748;8.728;2023-03-14T17:52:08;108418.00;;;222.90
12234;BMP180;6179;51.748;8.728;2023-03-14T17:58:12;108417.00;;;222.90
12234;BMP180;6179;51.748;8.728;2023-03-14T18:04:13;108419.00;;;222.90
12234;BMP180;6179;51.748;8.728;2023-03-14T18:10:14;108419.00;;;222.90
12234;BMP180;6179;51.748;8.728;2023-03-14T18:16:16;108418.00;;;222.90
12234;BMP180;6179;51.748;8.728;2023-03-14T18:22:17;108416.00;;;222.90
12234;BMP180;6179;51.748;8.728;2023-03-14T18:28:19;108418.00;;;222.90
12234;BMP180;6179;51.748;8.728;2023-03-14T18:34:21;108419.00;;;222.90
12234;BMP180;6179;51.748;8.728;2023-03-14T18:40:22;108417.00;;;222.90
12234;BMP180;6179;51.748;8.728;2023-03-14T18:46:23;108417.00;;;222.90
12234;BMP180;6179;51.748;8.728;2023-03-14T18:52:23;108419.00;;;222.90
12234;BMP180;6179;51.748;8.728;2023-03-14T18:58:24;108414.00;;;222.90
12234;BMP180;6179;51.748;8.728;2023-03-14T19:04:28;108424.00;;;222.90
12234;BMP180;6179;51.748;8.728;2023-03-14T19:10:29;108422.00;;;222.90
12234;BMP180;6179;51.748;8.728;2023-03-14T19:16:31;108419.00;;;222.90
12234;BMP180;6179;51.748;8.728;2023-03-14T19:22:32;108418.00;;;222.90
12234;BMP180;6179;51.748;8.728;2023-03-14T19:28:33;108416.00;;;222.90
12234;BMP180;6179;51.748;8.728;2023-03-14T19:34:34;108418.00;;;222.90
12234;BMP180;6179;51.748;8.728;2023-03-14T19:40:36;108422.00;;;222.90
12234;BMP180;6179;51.748;8.728;2023-03-14T19:46:37;108414.00;;;222.90
12234;BMP180;6179;51.748;8.728;2023-03-14T19:52:38;108413.00;;;222.90
12234;BMP180;6179;51.748;8.728;2023-03-14T19:58:43;108413.00;;;222.90
12234;BMP180;6179;51.748;8.728;2023-03-14T20:04:44;108420.00;;;222.90
12234;BMP180;6179;51.748;8.728;2023-03-14T20:10:46;108420.00;;;222.90
12234;BMP180;6179;51.748;8.728;2023-03-14T20:16:47;108417.00;;;222.90
12234;BMP180;6179;51.748;8.728;2023-03-14T20:22:48;108416.00;;;222.90
12234;BMP180;6179;51.748;8.728;2023-03-14T20:28:50;108422.00;;;222.90
12234;BMP180;6179;51.748;8.728;2023-03-14T20:34:50;108414.00;;;222.90
12234;BMP180;6179;51.748;8.728;2023-03-14T20:40:55;108417.00;;;222.90
12234;BMP180;6179;51.748;8.728;2023-03-14T20:46:56;108420.00;;;222.90
12234;BMP180;6179;51.748;8.728;2023-03-14T20:53:00;108418.00;;;222.90
12234;BMP180;6179;51.748;8.728;2023-03-14T20:59:01;108416.00;;;222.90
12234;BMP180;6179;51.748;8.728;2023-03-14T21:05:03;108421.00;;;222.90
12234;BMP180;6179;51.748;8.728;2023-03-14T21:11:05;108420.00;;;222.90
12234;BMP180;6179;51.748;8.728;2023-03-14T21:17:06;108421.00;;;222.90
12234;BMP180;6179;51.748;8.728;2023-03-14T21:23:08;108417.00;;;222.90
12234;BMP180;6179;51.748;8.728;2023-03-14T21:29:09;108421.00;;;222.90
12234;BMP180;6179;51.748;8.728;2023-03-14T21:35:09;108417.00;;;222.90
12234;BMP180;6179;51.748;8.728;2023-03-14T21:41:11;108413.00;;;222.90
12234;BMP180;6179;51.748;8.728;2023-03-14T21:47:15;108422.00;;;222.90
12234;BMP180;6179;51.748;8.728;2023-03-14T21:53:16;108416.00;;;222.90
12234;BMP180;6179;51.748;8.728;2023-03-14T21:59:16;108413.00;;;222.90
12234;BMP180;6179;51.748;8.728;2023-03-14T22:05:18;108411.00;;;222.90
12234;BMP180;6179;51.748;8.728;2023-03-14T22:11:23;108417.00;;;222.90
12234;BMP180;6179;51.748;8.728;2023-03-14T22:17:24;108412.00;;;222.90
12234;BMP180;6179;51.748;8.728;2023-03-14T22:23:24;108418.00;;;222.90
12234;BMP180;6179;51.748;8.728;2023-03-14T22:29:25;108415.00;;;222.90
12234;BMP180;6179;51.748;8.728;2023-03-14T22:35:26;108417.00;;;222.90
12234;BMP180;6179;51.748;8.728;2023-03-14T22:41:27;108414.00;;;222.90
12234;BMP180;6179;51.748;8.728;2023-03-14T22:47:28;108415.00;;;222.90
12234;BMP180;6179;51.748;8.728;2023-03-14T22:53:28;108420.00;;;222.90
12234;BMP180;6179;51.748;8.728;2023-03-14T22:59:29;108420.00;;;222.90
12234;BMP180;6179;51.748;8.728;2023-03-14T23:05:30;108413.00;;;222.90
12234;BMP180;6179;51.748;8.728;2023-03-14T23:11:31;108414.00;;;222.90
12234;BMP180;6179;51.748;8.728;2023-03-14T23:17:35;108413.00;;;222.90
12234;BMP180;6179;51.748;8.728;2023-03-14T23:23:36;108417.00;;;222.90
12234;BMP180;6179;51.748;8.728;2023-03-14T23:29:38;108410.00;;;222.90
12234;BMP180;6179;51.748;8.728;2023-03-14T23:35:38;108410.00;;;222.90
12234;BMP180;6179;51.748;8.728;2023-03-14T23:41:39;108418.00;;;222.90
12234;BMP180;6179;51.748;8.728;2023-03-14T23:47:40;108412.00;;;222.90
12234;BMP180;6179;51.748;8.728;2023-03-14T23:53:42;108414.00;;;222.90
12234;BMP180;6179;51.748;8.728;2023-03-14T23:59:43;108414.00;;;222.90
